Time;durP1;ratioP1;P1;durP2;ratioP2;P2;SDS_P1;SDS_P2;PMS_P1;PMS_P2;Temp;Humidity;BMP_temperature;BMP_pressure;BME280_temperature;BME280_humidity;BME280_pressure;Samples;Min_cycle;Max_cycle;Signal;HPM_P1;HPM_P2
2023/09/16 00:02:20;;;;;;;3.53;3.20;;;19.20;63.00;;;;;;5005857;28;20125;-54
2023/09/16 00:04:52;;;;;;;4.22;3.83;;;19.20;63.10;;;;;;5002503;28;20077;-57
2023/09/16 00:07:22;;;;;;;3.53;3.05;;;19.20;63.30;;;;;;5005733;28;20042;-57
2023/09/16 00:09:53;;;;;;;3.90;3.20;;;19.30;63.50;;;;;;5010340;28;20136;-55
2023/09/16 00:12:19;;;;;;;4.05;3.13;;;19.20;63.60;;;;;;5009177;28;20038;-57
2023/09/16 00:14:53;;;;;;;3.83;3.50;;;19.20;63.50;;;;;;5007353;28;20124;-56
2023/09/16 00:17:20;;;;;;;5.90;4.03;;;19.20;63.70;;;;;;5005551;28;20046;-57
2023/09/16 00:19:50;;;;;;;4.68;4.07;;;19.20;63.50;;;;;;5008141;28;20089;-57
2023/09/16 00:22:21;;;;;;;3.60;3.30;;;19.20;63.70;;;;;;5007042;28;20711;-56
2023/09/16 00:24:52;;;;;;;3.85;3.10;;;19.10;63.50;;;;;;5000226;28;20040;-58
2023/09/16 00:27:21;;;;;;;3.67;3.20;;;19.10;63.60;;;;;;5011192;28;20627;-57
2023/09/16 00:29:48;;;;;;;3.85;3.25;;;19.10;63.90;;;;;;5001111;28;20081;-57
2023/09/16 00:32:17;;;;;;;5.03;3.50;;;19.10;63.70;;;;;;5004714;28;20052;-55
2023/09/16 00:34:44;;;;;;;3.13;2.83;;;19.10;63.70;;;;;;5000631;28;20038;-56
2023/09/16 00:37:12;;;;;;;3.15;2.85;;;19.10;63.80;;;;;;5024302;28;20100;-56
2023/09/16 00:39:38;;;;;;;4.03;3.63;;;19.10;63.80;;;;;;5008026;28;20073;-54
2023/09/16 00:42:05;;;;;;;3.60;3.00;;;19.00;63.80;;;;;;5009299;28;20521;-55
2023/09/16 00:44:33;;;;;;;3.70;2.90;;;19.00;63.90;;;;;;5004985;28;20046;-55
2023/09/16 00:47:00;;;;;;;5.65;3.65;;;19.00;63.80;;;;;;5008869;28;20459;-57
2023/09/16 00:49:30;;;;;;;3.38;3.05;;;19.00;64.00;;;;;;5009244;28;20049;-54
2023/09/16 00:51:59;;;;;;;4.95;3.47;;;19.00;64.00;;;;;;5006465;28;20034;-56
2023/09/16 00:54:27;;;;;;;3.58;3.20;;;19.00;64.30;;;;;;4993176;28;20649;-53
2023/09/16 00:56:56;;;;;;;3.58;2.72;;;19.00;64.30;;;;;;5004973;28;20081;-53
2023/09/16 00:59:26;;;;;;;3.05;2.85;;;19.00;64.40;;;;;;5009513;28;20500;-54
2023/09/16 01:02:11;;;;;;;3.97;2.80;;;19.00;64.40;;;;;;5006834;28;20407;-58
2023/09/16 01:04:41;;;;;;;3.33;2.83;;;19.00;65.00;;;;;;5005240;28;20049;-54
2023/09/16 01:07:08;;;;;;;3.35;2.80;;;19.00;64.80;;;;;;5021159;28;20053;-54
2023/09/16 01:09:41;;;;;;;4.65;2.70;;;19.00;65.00;;;;;;5007563;28;20526;-55
2023/09/16 01:12:10;;;;;;;3.03;2.75;;;19.00;65.20;;;;;;5005739;28;20045;-51
2023/09/16 01:14:37;;;;;;;3.72;2.83;;;19.00;65.50;;;;;;5005442;28;20042;-55
2023/09/16 01:17:23;;;;;;;3.60;3.10;;;19.10;65.70;;;;;;4984805;28;20527;-56
2023/09/16 01:20:05;;;;;;;3.45;2.72;;;19.10;66.50;;;;;;5003981;28;20034;-54
2023/09/16 01:22:39;;;;;;;3.00;2.70;;;19.10;66.00;;;;;;5007576;28;20045;-57
2023/09/16 01:25:08;;;;;;;3.05;2.78;;;19.10;65.50;;;;;;5003810;28;20519;-53
2023/09/16 01:27:37;;;;;;;3.25;2.75;;;19.10;65.10;;;;;;5008203;28;20034;-54
2023/09/16 01:30:05;;;;;;;4.00;3.50;;;19.10;64.90;;;;;;5004382;28;20044;-56
2023/09/16 01:32:41;;;;;;;4.05;2.90;;;19.10;64.90;;;;;;4980397;28;20049;-56
2023/09/16 01:35:21;;;;;;;3.92;2.85;;;19.10;65.30;;;;;;5003199;28;20423;-55
2023/09/16 01:37:51;;;;;;;3.67;2.60;;;19.00;64.70;;;;;;5005159;28;20096;-56
2023/09/16 01:40:21;;;;;;;3.00;2.70;;;19.00;64.70;;;;;;5005603;28;20092;-59
2023/09/16 01:42:51;;;;;;;5.00;2.90;;;19.00;64.70;;;;;;4990682;28;20511;-55
2023/09/16 01:45:42;;;;;;;3.13;2.65;;;19.00;64.60;;;;;;5004506;28;20042;-54
2023/09/16 01:48:11;;;;;;;3.03;2.72;;;19.00;65.10;;;;;;5005244;28;20093;-56
2023/09/16 01:50:38;;;;;;;3.58;3.28;;;18.90;64.70;;;;;;5010589;28;20054;-52
2023/09/16 01:53:07;;;;;;;3.45;3.03;;;18.90;65.00;;;;;;5006673;28;20047;-57
2023/09/16 01:55:38;;;;;;;3.70;3.03;;;18.90;65.20;;;;;;5013201;28;20053;-55
2023/09/16 01:58:11;;;;;;;4.10;3.25;;;18.90;65.40;;;;;;5014312;28;20050;-57
2023/09/16 02:00:40;;;;;;;3.72;3.38;;;18.80;65.70;;;;;;5014143;28;20428;-53
2023/09/16 02:03:09;;;;;;;5.00;3.70;;;18.80;65.40;;;;;;5009825;28;20045;-55
2023/09/16 02:05:35;;;;;;;5.13;3.47;;;18.90;65.60;;;;;;5013086;28;20049;-51
2023/09/16 02:08:03;;;;;;;4.70;3.80;;;18.80;65.50;;;;;;5013332;28;20081;-56
2023/09/16 02:10:30;;;;;;;5.13;3.72;;;18.80;65.60;;;;;;5012870;28;20060;-56
2023/09/16 02:13:00;;;;;;;4.60;3.70;;;18.90;65.80;;;;;;5008896;28;20042;-57
2023/09/16 02:15:29;;;;;;;3.65;3.35;;;18.80;66.20;;;;;;5007490;28;20292;-54
2023/09/16 02:17:56;;;;;;;4.10;3.63;;;18.80;65.90;;;;;;5006343;28;20514;-56
2023/09/16 02:20:34;;;;;;;5.63;3.83;;;18.80;66.00;;;;;;5012663;28;20467;-57
2023/09/16 02:23:04;;;;;;;3.45;3.15;;;18.80;66.40;;;;;;5015030;28;20617;-54
2023/09/16 02:25:36;;;;;;;3.90;3.40;;;18.80;65.90;;;;;;5008549;28;20197;-54
2023/09/16 02:28:05;;;;;;;4.40;3.13;;;18.80;66.30;;;;;;5014447;28;20042;-55
2023/09/16 02:30:34;;;;;;;4.28;3.70;;;18.80;66.10;;;;;;5004086;28;20475;-54
2023/09/16 02:33:01;;;;;;;7.82;4.00;;;18.80;66.20;;;;;;5011024;28;20046;-52
2023/09/16 02:35:29;;;;;;;4.05;3.60;;;18.80;66.50;;;;;;5008833;28;20077;-53
2023/09/16 02:37:58;;;;;;;5.00;3.70;;;18.80;66.60;;;;;;5015556;28;20085;-54
2023/09/16 02:40:25;;;;;;;6.95;4.00;;;18.80;66.80;;;;;;5011750;28;20575;-54
2023/09/16 02:42:52;;;;;;;4.35;3.95;;;18.80;66.80;;;;;;5013369;28;20045;-57
2023/09/16 02:45:23;;;;;;;5.72;4.70;;;18.80;67.20;;;;;;5011463;28;20041;-54
2023/09/16 02:47:50;;;;;;;5.68;3.85;;;18.90;67.10;;;;;;5007240;28;20037;-55
2023/09/16 02:50:19;;;;;;;5.10;4.03;;;18.90;67.20;;;;;;5014580;28;20034;-55
2023/09/16 02:52:49;;;;;;;5.28;4.13;;;18.90;67.10;;;;;;5012182;28;20435;-58
2023/09/16 02:55:16;;;;;;;5.07;4.57;;;19.00;67.10;;;;;;5013007;28;20069;-53
2023/09/16 02:57:43;;;;;;;4.03;3.53;;;19.00;67.00;;;;;;4991128;28;20504;-55
2023/09/16 03:00:16;;;;;;;5.70;4.25;;;19.00;66.90;;;;;;5009811;28;20101;-54
2023/09/16 03:02:51;;;;;;;6.43;4.03;;;19.00;66.70;;;;;;5007812;28;20034;-55
2023/09/16 03:05:18;;;;;;;4.45;4.00;;;19.00;66.90;;;;;;5016824;28;20049;-53
2023/09/16 03:07:50;;;;;;;4.00;3.60;;;18.90;66.50;;;;;;4979552;28;20030;-56
2023/09/16 03:10:20;;;;;;;4.22;3.70;;;18.90;66.40;;;;;;5001285;28;20066;-54
2023/09/16 03:12:51;;;;;;;5.43;4.00;;;18.90;66.30;;;;;;5011967;28;20049;-55
2023/09/16 03:15:19;;;;;;;4.70;3.40;;;18.90;66.30;;;;;;5005187;28;20034;-56
2023/09/16 03:17:47;;;;;;;5.18;3.88;;;18.80;66.20;;;;;;5005937;28;20694;-56
2023/09/16 03:20:33;;;;;;;4.07;3.67;;;18.80;66.10;;;;;;4993503;28;20042;-54
2023/09/16 03:23:00;;;;;;;4.90;3.85;;;18.80;66.00;;;;;;5011324;28;20503;-56
2023/09/16 03:25:26;;;;;;;6.05;3.90;;;18.70;65.90;;;;;;4988369;28;20488;-56
2023/09/16 03:27:53;;;;;;;4.18;3.78;;;18.70;66.00;;;;;;5002954;28;20041;-57
2023/09/16 03:30:22;;;;;;;4.57;4.10;;;18.60;65.90;;;;;;5006954;28;20041;-50
2023/09/16 03:32:49;;;;;;;4.25;3.83;;;18.60;66.00;;;;;;5002456;28;20037;-56
2023/09/16 03:35:16;;;;;;;5.63;4.00;;;18.60;66.10;;;;;;4989886;28;20099;-56
2023/09/16 03:37:45;;;;;;;4.90;3.83;;;18.50;66.10;;;;;;5007830;28;20092;-56
2023/09/16 03:40:15;;;;;;;5.07;3.75;;;18.50;66.20;;;;;;5009718;28;20038;-55
2023/09/16 03:42:44;;;;;;;4.20;3.70;;;18.50;66.20;;;;;;5008803;28;20045;-57
2023/09/16 03:45:12;;;;;;;4.10;3.70;;;18.50;66.10;;;;;;5002881;28;20519;-53
2023/09/16 03:47:56;;;;;;;4.90;3.35;;;18.40;66.00;;;;;;5010395;28;20515;-55
2023/09/16 03:50:22;;;;;;;3.97;3.67;;;18.40;66.10;;;;;;5001516;28;20061;-56
2023/09/16 03:52:49;;;;;;;4.20;3.38;;;18.40;66.10;;;;;;4990980;28;20141;-55
2023/09/16 03:55:18;;;;;;;3.28;3.03;;;18.30;66.10;;;;;;4985138;28;20046;-54
2023/09/16 03:57:48;;;;;;;3.30;3.10;;;18.30;66.00;;;;;;5009943;28;20460;-53
2023/09/16 04:00:17;;;;;;;3.58;3.28;;;18.30;66.00;;;;;;5004986;28;20048;-50
2023/09/16 04:02:44;;;;;;;3.78;3.17;;;18.20;65.90;;;;;;5000198;28;20053;-54
2023/09/16 04:05:16;;;;;;;4.85;3.50;;;18.20;66.00;;;;;;5014799;28;20042;-53
2023/09/16 04:07:42;;;;;;;3.80;3.38;;;18.30;66.20;;;;;;5026091;28;20039;-53
2023/09/16 04:10:11;;;;;;;4.10;3.05;;;18.20;66.20;;;;;;5001203;28;20101;-49
2023/09/16 04:12:39;;;;;;;3.30;3.00;;;18.20;66.30;;;;;;5034165;23;20040;-50
2023/09/16 04:15:08;;;;;;;5.68;3.75;;;18.20;66.30;;;;;;5045386;28;20126;-47
2023/09/16 04:17:46;;;;;;;3.15;2.88;;;18.10;66.40;;;;;;5067709;28;20075;-49
2023/09/16 04:20:14;;;;;;;3.80;3.40;;;18.10;66.40;;;;;;5047767;28;20076;-48
2023/09/16 04:22:41;;;;;;;5.53;3.22;;;18.10;66.40;;;;;;5039733;28;20045;-52
2023/09/16 04:25:09;;;;;;;5.03;3.40;;;18.10;66.40;;;;;;5070102;28;20503;-49
2023/09/16 04:27:39;;;;;;;3.85;3.30;;;18.10;66.50;;;;;;5040176;28;20051;-50
2023/09/16 04:30:09;;;;;;;3.28;2.97;;;18.10;66.50;;;;;;5038765;28;20071;-51
2023/09/16 04:32:36;;;;;;;5.40;3.20;;;18.10;66.70;;;;;;5037284;28;20148;-51
2023/09/16 04:35:06;;;;;;;3.78;3.08;;;18.00;66.50;;;;;;5035603;28;20397;-49
2023/09/16 04:37:32;;;;;;;3.70;3.33;;;18.00;66.60;;;;;;5040643;28;20045;-48
2023/09/16 04:39:59;;;;;;;5.15;3.75;;;18.00;66.70;;;;;;5042101;28;20045;-51
2023/09/16 04:42:30;;;;;;;3.28;2.97;;;18.00;66.80;;;;;;5046826;28;20064;-51
2023/09/16 04:44:58;;;;;;;4.50;3.60;;;18.00;66.80;;;;;;5027580;28;20041;-48
2023/09/16 04:47:28;;;;;;;5.82;3.50;;;18.00;66.70;;;;;;5040316;28;20036;-50
2023/09/16 04:49:55;;;;;;;3.92;3.30;;;18.00;66.80;;;;;;5039341;28;20037;-49
2023/09/16 04:52:23;;;;;;;4.22;3.53;;;17.90;66.80;;;;;;5042703;28;20060;-49
2023/09/16 04:54:56;;;;;;;3.70;3.20;;;17.90;66.90;;;;;;5041647;28;20566;-48
2023/09/16 04:57:26;;;;;;;4.63;3.40;;;17.90;67.00;;;;;;5034995;28;20041;-53
2023/09/16 04:59:56;;;;;;;3.65;3.33;;;17.90;67.10;;;;;;5034602;28;20076;-48
2023/09/16 05:02:25;;;;;;;4.35;3.95;;;17.90;67.10;;;;;;5045348;28;20075;-52
2023/09/16 05:04:52;;;;;;;4.55;3.75;;;17.90;67.30;;;;;;5043007;28;20048;-47
2023/09/16 05:07:19;;;;;;;3.95;3.55;;;17.90;67.20;;;;;;5034913;28;20060;-49
2023/09/16 05:09:49;;;;;;;4.80;3.50;;;17.90;67.20;;;;;;5034030;28;20461;-49
2023/09/16 05:12:15;;;;;;;3.90;3.55;;;17.90;67.00;;;;;;5044387;28;20132;-51
2023/09/16 05:14:42;;;;;;;3.25;2.95;;;17.90;67.10;;;;;;5045439;28;20041;-52
2023/09/16 05:17:09;;;;;;;4.80;3.85;;;17.80;66.90;;;;;;5044785;28;20077;-51
2023/09/16 05:19:39;;;;;;;5.85;3.40;;;17.80;67.00;;;;;;5038539;28;20561;-49
2023/09/16 05:22:14;;;;;;;3.10;2.80;;;17.80;66.90;;;;;;5040200;28;20043;-52
2023/09/16 05:24:44;;;;;;;4.80;3.20;;;17.80;67.20;;;;;;5036894;28;20053;-54
2023/09/16 05:27:12;;;;;;;4.50;4.10;;;17.80;67.10;;;;;;5030868;28;20041;-50
2023/09/16 05:29:43;;;;;;;3.47;3.08;;;17.80;67.30;;;;;;5039319;28;20049;-52
2023/09/16 05:32:12;;;;;;;4.20;3.80;;;17.80;67.30;;;;;;5049878;28;20441;-51
2023/09/16 05:34:41;;;;;;;6.72;4.65;;;18.00;67.40;;;;;;5044005;28;20076;-48
2023/09/16 05:37:08;;;;;;;3.90;3.35;;;17.80;67.60;;;;;;5049061;28;20045;-49
2023/09/16 05:39:35;;;;;;;4.97;3.63;;;17.80;67.50;;;;;;5047038;28;20048;-47
2023/09/16 05:42:05;;;;;;;3.90;3.38;;;17.80;67.50;;;;;;5047650;28;20108;-48
2023/09/16 05:44:31;;;;;;;7.00;3.83;;;17.80;67.70;;;;;;5044843;28;20057;-51
2023/09/16 05:47:06;;;;;;;5.35;4.30;;;17.70;67.60;;;;;;5032418;28;20037;-47
2023/09/16 05:49:34;;;;;;;4.93;3.97;;;17.80;67.80;;;;;;5030211;28;20055;-51
2023/09/16 05:52:04;;;;;;;4.60;4.00;;;17.80;67.90;;;;;;5037522;28;20051;-52
2023/09/16 05:54:36;;;;;;;4.07;3.67;;;17.80;68.00;;;;;;5032669;28;20092;-49
2023/09/16 05:57:04;;;;;;;5.10;3.83;;;17.80;68.20;;;;;;5043309;28;20574;-47
2023/09/16 05:59:31;;;;;;;7.03;4.20;;;17.80;68.20;;;;;;5039536;28;20103;-51
2023/09/16 06:01:58;;;;;;;5.88;4.72;;;17.80;68.40;;;;;;5042600;28;20068;-53
2023/09/16 06:04:25;;;;;;;8.18;5.43;;;17.80;68.40;;;;;;5041695;28;20076;-53
2023/09/16 06:06:54;;;;;;;5.20;4.35;;;17.90;68.50;;;;;;5029758;28;20041;-49
2023/09/16 06:09:21;;;;;;;7.22;4.85;;;17.90;68.50;;;;;;5046889;28;20040;-55
2023/09/16 06:11:50;;;;;;;4.80;4.30;;;17.90;68.50;;;;;;5036936;28;20052;-56
2023/09/16 06:14:19;;;;;;;5.95;4.00;;;17.90;68.60;;;;;;5022547;28;20042;-57
2023/09/16 06:16:48;;;;;;;7.55;4.35;;;17.90;68.70;;;;;;5038703;28;20473;-56
2023/09/16 06:19:15;;;;;;;12.00;5.97;;;17.90;68.70;;;;;;5037054;28;20211;-56
2023/09/16 06:21:42;;;;;;;5.18;3.33;;;18.00;68.80;;;;;;5044667;28;20506;-56
2023/09/16 06:24:10;;;;;;;5.60;4.45;;;18.00;68.90;;;;;;5032928;28;20085;-56
2023/09/16 06:26:36;;;;;;;6.47;3.90;;;18.10;69.00;;;;;;5043272;28;20068;-55
2023/09/16 06:29:03;;;;;;;4.88;3.63;;;18.10;69.10;;;;;;5045863;28;20117;-56
2023/09/16 06:31:30;;;;;;;6.30;4.22;;;18.10;69.20;;;;;;5022198;28;20056;-55
2023/09/16 06:33:58;;;;;;;6.30;4.68;;;18.10;69.20;;;;;;5034983;28;20049;-55
2023/09/16 06:36:25;;;;;;;4.03;3.63;;;18.20;69.40;;;;;;5023757;28;20049;-54
2023/09/16 06:38:52;;;;;;;5.50;4.22;;;18.20;69.40;;;;;;5032852;28;20135;-54
2023/09/16 06:41:20;;;;;;;4.07;3.67;;;18.20;69.50;;;;;;5045507;28;20037;-57
2023/09/16 06:43:47;;;;;;;5.05;3.60;;;18.30;69.60;;;;;;5028670;28;20096;-53
2023/09/16 06:46:18;;;;;;;5.85;4.05;;;18.30;69.80;;;;;;5043538;28;20044;-51
2023/09/16 06:48:45;;;;;;;4.30;3.75;;;18.30;69.80;;;;;;5047314;28;20120;-56
2023/09/16 06:51:12;;;;;;;4.47;3.80;;;18.40;69.90;;;;;;5044749;28;20068;-54
2023/09/16 06:53:38;;;;;;;5.78;4.50;;;18.40;70.00;;;;;;5047785;28;20052;-57
2023/09/16 06:56:05;;;;;;;5.85;4.80;;;18.50;70.20;;;;;;5043050;28;20037;-55
2023/09/16 06:58:32;;;;;;;5.10;4.35;;;18.50;70.40;;;;;;5050304;28;20045;-51
2023/09/16 07:01:06;;;;;;;6.95;4.32;;;18.60;70.60;;;;;;5041492;28;20068;-52
2023/09/16 07:03:33;;;;;;;6.82;4.32;;;18.60;70.70;;;;;;5045271;28;20069;-56
2023/09/16 07:06:00;;;;;;;6.57;4.93;;;18.70;70.50;;;;;;5046163;28;20049;-53
2023/09/16 07:08:30;;;;;;;5.53;4.25;;;18.70;70.40;;;;;;5047215;28;20065;-54
2023/09/16 07:10:57;;;;;;;6.60;4.50;;;18.80;70.70;;;;;;5046106;28;20506;-55
2023/09/16 07:13:23;;;;;;;5.55;5.05;;;18.90;70.70;;;;;;5042682;28;20399;-53
2023/09/16 07:15:54;;;;;;;5.70;5.00;;;18.90;70.70;;;;;;5043967;28;20128;-56
2023/09/16 07:18:21;;;;;;;6.13;5.10;;;19.00;71.00;;;;;;5048370;28;20041;-55
2023/09/16 07:20:51;;;;;;;5.25;4.75;;;19.00;70.80;;;;;;5047655;28;20439;-54
2023/09/16 07:23:17;;;;;;;6.63;5.10;;;19.10;71.00;;;;;;5041568;28;20038;-55
2023/09/16 07:25:57;;;;;;;5.40;4.57;;;19.20;70.80;;;;;;5035534;28;20079;-55
2023/09/16 07:28:27;;;;;;;7.28;5.65;;;19.20;71.30;;;;;;5040781;28;20085;-53
2023/09/16 07:30:54;;;;;;;5.70;4.45;;;19.20;70.80;;;;;;5039152;28;20606;-54
2023/09/16 07:33:22;;;;;;;5.28;4.78;;;19.30;70.80;;;;;;5041328;28;20033;-57
2023/09/16 07:35:51;;;;;;;9.50;4.70;;;19.40;70.90;;;;;;5044931;28;20133;-55
2023/09/16 07:38:17;;;;;;;6.57;5.63;;;19.40;71.00;;;;;;5042776;28;20087;-52
2023/09/16 07:40:44;;;;;;;7.03;5.93;;;19.50;70.90;;;;;;5047396;28;20129;-54
2023/09/16 07:43:11;;;;;;;5.70;5.13;;;19.60;71.00;;;;;;5043056;28;20046;-52
2023/09/16 07:45:40;;;;;;;8.43;6.38;;;19.60;70.80;;;;;;5047970;28;20057;-51
2023/09/16 07:48:09;;;;;;;6.55;4.75;;;19.70;70.80;;;;;;5046602;28;20041;-51
2023/09/16 07:50:35;;;;;;;6.75;5.82;;;19.80;70.70;;;;;;5045093;28;20138;-51
2023/09/16 07:53:02;;;;;;;7.63;5.40;;;19.80;70.40;;;;;;5029711;28;20061;-54
2023/09/16 07:55:29;;;;;;;7.85;5.30;;;19.90;70.30;;;;;;5050418;28;20553;-52
2023/09/16 07:57:55;;;;;;;9.77;5.80;;;20.00;70.20;;;;;;5045108;28;20072;-51
2023/09/16 08:00:22;;;;;;;5.53;5.03;;;20.10;70.10;;;;;;5049560;28;20051;-56
2023/09/16 08:02:49;;;;;;;11.70;5.60;;;20.10;70.00;;;;;;5035725;28;20503;-54
2023/09/16 08:05:16;;;;;;;6.80;5.53;;;20.20;69.90;;;;;;5027604;28;20045;-50
2023/09/16 08:07:42;;;;;;;11.25;5.60;;;20.30;70.00;;;;;;5047112;28;20072;-56
2023/09/16 08:10:09;;;;;;;6.35;5.38;;;20.30;70.30;;;;;;5043043;28;20045;-56
2023/09/16 08:12:36;;;;;;;6.00;5.35;;;20.40;69.90;;;;;;5040449;28;20058;-54
2023/09/16 08:15:06;;;;;;;8.55;6.03;;;20.50;69.80;;;;;;5040987;28;20037;-51
2023/09/16 08:17:33;;;;;;;6.38;4.78;;;20.50;69.80;;;;;;5041575;28;20052;-54
2023/09/16 08:20:00;;;;;;;7.22;5.43;;;20.50;69.40;;;;;;5041957;28;20041;-52
2023/09/16 08:22:28;;;;;;;10.32;5.88;;;20.60;69.30;;;;;;5043738;28;20115;-56
2023/09/16 08:24:55;;;;;;;6.55;5.28;;;20.60;69.40;;;;;;5047350;28;20135;-54
2023/09/16 08:27:23;;;;;;;10.18;5.47;;;20.70;69.20;;;;;;5046077;28;20048;-54
2023/09/16 08:29:51;;;;;;;8.35;5.85;;;20.80;69.30;;;;;;5045413;28;20037;-55
2023/09/16 08:32:17;;;;;;;8.20;5.22;;;20.80;69.00;;;;;;5042317;28;20530;-54
2023/09/16 08:34:44;;;;;;;6.88;5.45;;;20.80;69.00;;;;;;5038526;28;21056;-56
2023/09/16 08:37:11;;;;;;;8.65;6.25;;;20.90;69.00;;;;;;5046862;28;20044;-54
2023/09/16 08:39:38;;;;;;;6.28;4.65;;;20.90;68.70;;;;;;5046235;28;20148;-55
2023/09/16 08:42:28;;;;;;;7.30;5.80;;;21.00;69.30;;;;;;5045559;28;20068;-55
2023/09/16 08:44:59;;;;;;;6.75;4.40;;;21.00;69.00;;;;;;5028429;28;20566;-51
2023/09/16 08:47:39;;;;;;;5.50;4.75;;;21.10;68.60;;;;;;5042638;28;20065;-54
2023/09/16 08:50:08;;;;;;;5.68;4.57;;;21.20;68.50;;;;;;5043887;28;20384;-55
2023/09/16 08:52:50;;;;;;;5.70;5.10;;;21.20;68.20;;;;;;5047467;28;20111;-52
2023/09/16 08:55:18;;;;;;;6.68;5.45;;;21.30;68.80;;;;;;5043806;28;20055;-53
2023/09/16 08:57:50;;;;;;;7.47;5.57;;;21.30;68.00;;;;;;5045936;28;20552;-55
2023/09/16 09:00:17;;;;;;;6.35;5.63;;;21.40;67.70;;;;;;5044194;28;20124;-55
2023/09/16 09:02:44;;;;;;;6.78;5.10;;;21.40;67.60;;;;;;5039451;28;20124;-54
2023/09/16 09:05:12;;;;;;;7.45;5.35;;;21.40;67.90;;;;;;5046139;28;20052;-54
2023/09/16 09:07:40;;;;;;;6.18;5.47;;;21.50;68.30;;;;;;5045561;28;20135;-55
2023/09/16 09:10:10;;;;;;;7.78;5.20;;;21.50;68.30;;;;;;5046714;28;20068;-53
2023/09/16 09:12:40;;;;;;;7.82;4.93;;;21.60;68.00;;;;;;5045189;28;20068;-56
2023/09/16 09:15:15;;;;;;;13.80;5.68;;;21.60;67.80;;;;;;5043889;28;20073;-57
2023/09/16 09:17:50;;;;;;;6.22;5.60;;;21.70;68.00;;;;;;5049010;28;20565;-57
2023/09/16 09:20:25;;;;;;;6.40;5.68;;;21.80;67.90;;;;;;5023233;28;20055;-54
2023/09/16 09:22:52;;;;;;;6.78;5.68;;;21.90;68.20;;;;;;5046538;28;20506;-56
2023/09/16 09:25:25;;;;;;;7.45;4.85;;;21.70;67.40;;;;;;5036780;28;20121;-54
2023/09/16 09:27:52;;;;;;;;;;;22.00;67.40;;;;;;5048028;28;20103;-55
2023/09/16 09:30:31;;;;;;;6.07;5.35;;;22.10;67.30;;;;;;5045299;28;19925;-56
2023/09/16 09:32:59;;;;;;;6.35;5.72;;;22.10;67.10;;;;;;5041975;28;20684;-55
2023/09/16 09:35:28;;;;;;;5.95;4.80;;;22.10;67.00;;;;;;5044083;28;20044;-55
2023/09/16 09:37:55;;;;;;;6.70;4.60;;;22.20;67.10;;;;;;5038816;28;20057;-58
2023/09/16 09:40:22;;;;;;;6.00;4.75;;;22.30;67.20;;;;;;5038534;28;20043;-53
2023/09/16 09:42:51;;;;;;;6.45;5.53;;;22.30;67.10;;;;;;5048422;28;20057;-54
2023/09/16 09:45:20;;;;;;;5.78;4.75;;;22.30;67.60;;;;;;5041980;28;20041;-55
2023/09/16 09:47:51;;;;;;;6.03;5.43;;;22.40;67.30;;;;;;5038677;28;20036;-57
2023/09/16 09:50:22;;;;;;;6.15;4.60;;;22.50;66.90;;;;;;5040404;28;20043;-54
2023/09/16 09:52:52;;;;;;;7.00;5.50;;;22.50;67.00;;;;;;5040972;28;20518;-55
2023/09/16 09:55:27;;;;;;;9.35;5.90;;;22.60;66.80;;;;;;5045198;28;20430;-54
2023/09/16 09:57:54;;;;;;;5.88;5.00;;;22.60;66.50;;;;;;5041236;28;20140;-53
2023/09/16 10:00:23;;;;;;;6.43;4.78;;;22.70;66.00;;;;;;5040341;28;20045;-56
2023/09/16 10:02:50;;;;;;;6.85;6.18;;;22.80;66.10;;;;;;5035373;28;20103;-52
2023/09/16 10:05:22;;;;;;;5.05;4.55;;;22.80;65.90;;;;;;5039308;28;20049;-56
2023/09/16 10:07:51;;;;;;;6.57;4.82;;;22.90;66.20;;;;;;5044330;28;20052;-51
2023/09/16 10:10:20;;;;;;;6.22;5.63;;;23.00;66.50;;;;;;5042535;28;20106;-53
2023/09/16 10:12:52;;;;;;;7.70;5.60;;;23.00;65.60;;;;;;5041120;28;20041;-54
2023/09/16 10:15:26;;;;;;;5.70;4.82;;;23.10;65.10;;;;;;5048466;28;20278;-54
2023/09/16 10:17:55;;;;;;;5.93;5.38;;;23.20;65.10;;;;;;5049792;28;20041;-55
2023/09/16 10:20:22;;;;;;;5.43;4.70;;;23.20;64.60;;;;;;5048507;28;20056;-57
2023/09/16 10:22:50;;;;;;;7.53;5.70;;;23.30;64.40;;;;;;5051464;28;20049;-57
2023/09/16 10:25:18;;;;;;;6.03;5.15;;;23.30;64.50;;;;;;5051734;28;20100;-54
2023/09/16 10:28:10;;;;;;;8.52;5.53;;;23.40;64.50;;;;;;5041243;28;20043;-56
2023/09/16 10:30:37;;;;;;;6.53;5.55;;;23.40;64.70;;;;;;5048220;28;20450;-54
2023/09/16 10:33:06;;;;;;;6.70;5.55;;;23.50;64.80;;;;;;5043884;28;20033;-56
2023/09/16 10:35:37;;;;;;;6.78;6.13;;;23.50;64.60;;;;;;5048889;28;20111;-53
2023/09/16 10:38:06;;;;;;;6.05;5.55;;;23.50;65.20;;;;;;5043714;28;20121;-58
2023/09/16 10:40:33;;;;;;;5.55;4.85;;;23.60;64.80;;;;;;5049622;28;20582;-52
2023/09/16 10:43:05;;;;;;;6.40;4.97;;;23.70;64.30;;;;;;5049197;28;20049;-55
2023/09/16 10:45:31;;;;;;;5.20;4.80;;;23.70;63.40;;;;;;5042396;28;20060;-52
2023/09/16 10:48:01;;;;;;;6.60;5.95;;;23.80;63.60;;;;;;5052519;28;20383;-55
2023/09/16 10:50:34;;;;;;;6.70;6.03;;;23.80;63.30;;;;;;5048721;28;20051;-50
2023/09/16 10:53:15;;;;;;;;;;;23.90;63.60;;;;;;5046932;28;20064;-53
2023/09/16 10:55:56;;;;;;;5.35;4.75;;;24.00;63.60;;;;;;5052541;28;20019;-56
2023/09/16 10:58:29;;;;;;;9.10;5.65;;;24.10;62.80;;;;;;5045403;28;20136;-55
2023/09/16 11:00:58;;;;;;;5.82;5.28;;;24.10;63.50;;;;;;5048511;28;20052;-56
2023/09/16 11:03:34;;;;;;;6.93;5.75;;;24.10;63.60;;;;;;5048371;28;20068;-55
2023/09/16 11:06:01;;;;;;;7.88;5.22;;;24.20;63.80;;;;;;5043369;28;20068;-55
2023/09/16 11:08:29;;;;;;;7.20;6.18;;;24.30;63.70;;;;;;5044493;28;20132;-54
2023/09/16 11:10:56;;;;;;;5.85;5.10;;;24.40;63.60;;;;;;5043809;28;20041;-53
2023/09/16 11:13:25;;;;;;;8.50;5.10;;;24.50;63.50;;;;;;5045283;28;20041;-53
2023/09/16 11:15:51;;;;;;;5.40;4.90;;;24.50;63.40;;;;;;5044366;28;20044;-54
2023/09/16 11:18:18;;;;;;;7.72;5.85;;;24.70;64.00;;;;;;5046303;28;20051;-56
2023/09/16 11:20:46;;;;;;;6.28;4.75;;;24.70;63.30;;;;;;5043351;28;20072;-53
2023/09/16 11:23:13;;;;;;;6.90;5.40;;;24.80;63.20;;;;;;5047583;28;20115;-57
2023/09/16 11:25:41;;;;;;;8.20;5.50;;;24.90;63.30;;;;;;5048700;28;20052;-54
2023/09/16 11:28:12;;;;;;;5.63;4.63;;;25.00;63.30;;;;;;5050117;28;20045;-57
2023/09/16 11:30:39;;;;;;;7.03;5.50;;;25.00;63.00;;;;;;5039966;28;20057;-55
2023/09/16 11:33:32;;;;;;;6.20;5.70;;;25.10;63.00;;;;;;5045552;28;20044;-55
2023/09/16 11:36:14;;;;;;;7.72;5.80;;;25.20;62.50;;;;;;5043726;28;20133;-54
2023/09/16 11:39:06;;;;;;;8.73;5.67;;;25.30;62.50;;;;;;5048507;28;20053;-53
2023/09/16 11:41:33;;;;;;;7.50;5.72;;;25.40;62.50;;;;;;5046329;28;20049;-54
2023/09/16 11:44:00;;;;;;;6.50;4.93;;;25.50;62.80;;;;;;5045918;28;20049;-55
2023/09/16 11:46:28;;;;;;;6.15;5.55;;;25.60;62.60;;;;;;5047647;28;20045;-54
2023/09/16 11:49:05;;;;;;;5.63;4.97;;;25.70;62.10;;;;;;5049547;28;20048;-54
2023/09/16 11:51:35;;;;;;;8.10;6.32;;;25.90;62.10;;;;;;5043559;28;20495;-57
2023/09/16 11:54:03;;;;;;;6.93;5.55;;;26.00;61.30;;;;;;5047041;28;20120;-52
2023/09/16 11:56:34;;;;;;;8.80;6.47;;;26.10;60.80;;;;;;5048831;28;20045;-53
2023/09/16 11:59:04;;;;;;;7.63;5.33;;;26.20;60.60;;;;;;5048677;28;20383;-57
2023/09/16 12:01:36;;;;;;;5.40;4.68;;;26.30;60.40;;;;;;5042202;28;20124;-54
2023/09/16 12:04:05;;;;;;;7.25;5.25;;;26.50;60.40;;;;;;5044492;28;20094;-58
2023/09/16 12:06:34;;;;;;;6.18;5.40;;;26.60;60.10;;;;;;5049210;28;20089;-55
2023/09/16 12:09:04;;;;;;;6.25;5.65;;;26.70;60.00;;;;;;5046576;28;20052;-58
2023/09/16 12:11:32;;;;;;;5.72;5.15;;;26.90;59.60;;;;;;5042911;28;20048;-55
2023/09/16 12:14:00;;;;;;;9.63;5.97;;;27.00;59.60;;;;;;5046249;28;20053;-56
2023/09/16 12:16:27;;;;;;;6.13;4.75;;;27.10;58.90;;;;;;5047912;28;20142;-54
2023/09/16 12:18:55;;;;;;;6.20;5.57;;;27.30;59.20;;;;;;5049387;28;20068;-57
2023/09/16 12:21:22;;;;;;;6.05;4.70;;;27.40;58.60;;;;;;5046560;28;20041;-56
2023/09/16 12:23:51;;;;;;;5.38;4.88;;;27.50;58.40;;;;;;5047950;28;20049;-56
2023/09/16 12:26:18;;;;;;;5.57;4.70;;;27.60;58.00;;;;;;5049026;28;20041;-54
2023/09/16 12:28:45;;;;;;;6.10;4.90;;;27.80;57.30;;;;;;5039750;28;20041;-55
2023/09/16 12:31:12;;;;;;;5.68;5.10;;;27.90;56.80;;;;;;5046464;28;20442;-55
2023/09/16 12:33:45;;;;;;;6.10;4.65;;;28.00;56.40;;;;;;5044438;28;20060;-57
2023/09/16 12:36:17;;;;;;;5.47;4.97;;;28.10;55.60;;;;;;5046445;28;20434;-53
2023/09/16 12:38:46;;;;;;;6.47;5.43;;;28.20;55.80;;;;;;5049363;28;20072;-55
2023/09/16 12:41:13;;;;;;;5.32;4.82;;;28.30;56.20;;;;;;5049495;28;20079;-59
2023/09/16 12:43:41;;;;;;;5.45;4.90;;;28.40;55.50;;;;;;5043552;28;20041;-55
2023/09/16 12:46:09;;;;;;;6.43;5.22;;;28.50;55.30;;;;;;5046804;28;20052;-54
2023/09/16 12:48:37;;;;;;;6.10;5.35;;;28.60;54.40;;;;;;5048072;28;20035;-55
2023/09/16 12:51:06;;;;;;;5.78;4.43;;;28.70;54.40;;;;;;5039907;28;20514;-54
2023/09/16 12:53:33;;;;;;;4.97;4.45;;;28.80;53.80;;;;;;5043401;28;20036;-56
2023/09/16 12:56:03;;;;;;;5.35;4.85;;;28.90;54.00;;;;;;5048269;28;20091;-57
2023/09/16 12:58:30;;;;;;;5.60;5.10;;;29.00;52.80;;;;;;5046733;28;20087;-57
2023/09/16 13:00:57;;;;;;;5.10;4.70;;;29.10;53.60;;;;;;5045501;28;20041;-56